sensor_id;sensor_type;location;lat;lon;timestamp;pressure;altitude;pressure_sealevel;temperature;humidity
39275;BME280;24980;48.874;2.332;2022-07-24T00:00:53;101568.82;;;28.97;45.62
39275;BME280;24980;48.874;2.332;2022-07-24T00:03:23;101569.23;;;28.98;45.64
39275;BME280;24980;48.874;2.332;2022-07-24T00:05:53;101575.20;;;28.98;45.64
39275;BME280;24980;48.874;2.332;2022-07-24T00:08:23;101572.30;;;28.98;45.65
39275;BME280;24980;48.874;2.332;2022-07-24T00:10:53;101574.27;;;28.97;45.68
39275;BME280;24980;48.874;2.332;2022-07-24T00:13:23;101580.51;;;28.97;45.68
39275;BME280;24980;48.874;2.332;2022-07-24T00:15:53;101574.55;;;28.97;45.69
39275;BME280;24980;48.874;2.332;2022-07-24T00:18:23;101578.72;;;28.97;45.69
39275;BME280;24980;48.874;2.332;2022-07-24T00:20:53;101577.87;;;28.97;45.70
39275;BME280;24980;48.874;2.332;2022-07-24T00:23:23;101572.84;;;28.97;45.71
39275;BME280;24980;48.874;2.332;2022-07-24T00:25:54;101573.41;;;28.95;45.71
39275;BME280;24980;48.874;2.332;2022-07-24T00:28:24;101575.58;;;28.94;45.73
39275;BME280;24980;48.874;2.332;2022-07-24T00:30:55;101569.36;;;28.93;45.74
39275;BME280;24980;48.874;2.332;2022-07-24T00:33:30;101568.66;;;28.91;45.76
39275;BME280;24980;48.874;2.332;2022-07-24T00:35:55;101562.45;;;28.90;45.77
39275;BME280;24980;48.874;2.332;2022-07-24T00:38:25;101550.89;;;28.90;45.78
39275;BME280;24980;48.874;2.332;2022-07-24T00:40:56;101547.84;;;28.89;45.80
39275;BME280;24980;48.874;2.332;2022-07-24T00:43:26;101540.88;;;28.88;45.83
39275;BME280;24980;48.874;2.332;2022-07-24T00:45:56;101536.50;;;28.86;45.82
39275;BME280;24980;48.874;2.332;2022-07-24T00:48:26;101529.12;;;28.84;45.81
39275;BME280;24980;48.874;2.332;2022-07-24T00:50:58;101523.22;;;28.82;45.79
39275;BME280;24980;48.874;2.332;2022-07-24T00:53:33;101530.48;;;28.82;45.75
39275;BME280;24980;48.874;2.332;2022-07-24T00:55:58;101527.73;;;28.80;45.74
39275;BME280;24980;48.874;2.332;2022-07-24T00:58:32;101524.17;;;28.79;45.71
39275;BME280;24980;48.874;2.332;2022-07-24T01:00:59;101517.46;;;28.77;45.68
39275;BME280;24980;48.874;2.332;2022-07-24T01:03:30;101518.97;;;28.76;45.64
39275;BME280;24980;48.874;2.332;2022-07-24T01:05:59;101510.30;;;28.75;45.60
39275;BME280;24980;48.874;2.332;2022-07-24T01:08:29;101509.28;;;28.75;45.55
39275;BME280;24980;48.874;2.332;2022-07-24T01:10:59;101512.44;;;28.72;45.50
39275;BME280;24980;48.874;2.332;2022-07-24T01:13:30;101513.55;;;28.72;45.47
39275;BME280;24980;48.874;2.332;2022-07-24T01:15:59;101519.25;;;28.70;45.43
39275;BME280;24980;48.874;2.332;2022-07-24T01:18:30;101520.38;;;28.70;45.39
39275;BME280;24980;48.874;2.332;2022-07-24T01:21:00;101522.11;;;28.68;45.36
39275;BME280;24980;48.874;2.332;2022-07-24T01:23:30;101525.62;;;28.67;45.32
39275;BME280;24980;48.874;2.332;2022-07-24T01:26:00;101529.52;;;28.66;45.28
39275;BME280;24980;48.874;2.332;2022-07-24T01:28:30;101530.73;;;28.66;45.26
39275;BME280;24980;48.874;2.332;2022-07-24T01:31:00;101529.26;;;28.65;45.22
39275;BME280;24980;48.874;2.332;2022-07-24T01:33:31;101526.46;;;28.64;45.20
39275;BME280;24980;48.874;2.332;2022-07-24T01:36:01;101525.06;;;28.63;45.18
39275;BME280;24980;48.874;2.332;2022-07-24T01:38:31;101524.92;;;28.62;45.15
39275;BME280;24980;48.874;2.332;2022-07-24T01:41:01;101522.12;;;28.61;45.14
39275;BME280;24980;48.874;2.332;2022-07-24T01:43:31;101522.55;;;28.61;45.12
39275;BME280;24980;48.874;2.332;2022-07-24T01:46:01;101526.94;;;28.61;45.09
39275;BME280;24980;48.874;2.332;2022-07-24T01:48:31;101524.22;;;28.60;45.08
39275;BME280;24980;48.874;2.332;2022-07-24T01:51:01;101524.32;;;28.59;45.07
39275;BME280;24980;48.874;2.332;2022-07-24T01:53:31;101523.56;;;28.59;45.06
39275;BME280;24980;48.874;2.332;2022-07-24T01:56:01;101524.18;;;28.58;45.04
39275;BME280;24980;48.874;2.332;2022-07-24T01:58:32;101523.75;;;28.58;45.04
39275;BME280;24980;48.874;2.332;2022-07-24T02:01:02;101520.30;;;28.57;45.02
39275;BME280;24980;48.874;2.332;2022-07-24T02:03:32;101517.42;;;28.56;45.01
39275;BME280;24980;48.874;2.332;2022-07-24T02:06:02;101515.56;;;28.55;45.00
39275;BME280;24980;48.874;2.332;2022-07-24T02:08:32;101515.91;;;28.55;45.00
39275;BME280;24980;48.874;2.332;2022-07-24T02:11:03;101515.14;;;28.55;44.99
39275;BME280;24980;48.874;2.332;2022-07-24T02:13:33;101510.00;;;28.54;44.97
39275;BME280;24980;48.874;2.332;2022-07-24T02:16:04;101510.35;;;28.53;44.96
39275;BME280;24980;48.874;2.332;2022-07-24T02:18:34;101505.77;;;28.52;44.95
39275;BME280;24980;48.874;2.332;2022-07-24T02:21:04;101501.44;;;28.51;44.93
39275;BME280;24980;48.874;2.332;2022-07-24T02:23:34;101504.24;;;28.52;44.93
39275;BME280;24980;48.874;2.332;2022-07-24T02:26:05;101499.26;;;28.51;44.91
39275;BME280;24980;48.874;2.332;2022-07-24T02:28:35;101497.16;;;28.50;44.91
39275;BME280;24980;48.874;2.332;2022-07-24T02:31:05;101493.58;;;28.49;44.89
39275;BME280;24980;48.874;2.332;2022-07-24T02:33:35;101494.75;;;28.48;44.89
39275;BME280;24980;48.874;2.332;2022-07-24T02:36:05;101489.76;;;28.48;44.88
39275;BME280;24980;48.874;2.332;2022-07-24T02:38:35;101488.53;;;28.47;44.86
39275;BME280;24980;48.874;2.332;2022-07-24T02:41:05;101484.30;;;28.46;44.85
39275;BME280;24980;48.874;2.332;2022-07-24T02:43:35;101481.75;;;28.45;44.85
39275;BME280;24980;48.874;2.332;2022-07-24T02:46:06;101483.03;;;28.45;44.84
39275;BME280;24980;48.874;2.332;2022-07-24T02:48:38;101476.78;;;28.44;44.83
39275;BME280;24980;48.874;2.332;2022-07-24T02:51:06;101475.68;;;28.44;44.82
39275;BME280;24980;48.874;2.332;2022-07-24T02:53:37;101470.75;;;28.43;44.82
39275;BME280;24980;48.874;2.332;2022-07-24T02:56:07;101468.38;;;28.42;44.80
39275;BME280;24980;48.874;2.332;2022-07-24T02:58:37;101467.19;;;28.42;44.79
39275;BME280;24980;48.874;2.332;2022-07-24T03:01:07;101465.10;;;28.41;44.79
39275;BME280;24980;48.874;2.332;2022-07-24T03:03:38;101462.92;;;28.40;44.79
39275;BME280;24980;48.874;2.332;2022-07-24T03:06:08;101464.73;;;28.39;44.79
39275;BME280;24980;48.874;2.332;2022-07-24T03:08:41;101459.83;;;28.38;44.80
39275;BME280;24980;48.874;2.332;2022-07-24T03:11:09;101453.38;;;28.37;44.81
39275;BME280;24980;48.874;2.332;2022-07-24T03:13:39;101452.62;;;28.36;44.81
39275;BME280;24980;48.874;2.332;2022-07-24T03:16:09;101452.95;;;28.36;44.81
39275;BME280;24980;48.874;2.332;2022-07-24T03:18:39;101452.04;;;28.36;44.80
39275;BME280;24980;48.874;2.332;2022-07-24T03:21:09;101451.15;;;28.35;44.78
39275;BME280;24980;48.874;2.332;2022-07-24T03:23:39;101456.19;;;28.35;44.76
39275;BME280;24980;48.874;2.332;2022-07-24T03:26:09;101453.38;;;28.34;44.74
39275;BME280;24980;48.874;2.332;2022-07-24T03:28:39;101455.27;;;28.34;44.72
39275;BME280;24980;48.874;2.332;2022-07-24T03:31:09;101458.44;;;28.33;44.70
39275;BME280;24980;48.874;2.332;2022-07-24T03:33:39;101458.86;;;28.33;44.71
39275;BME280;24980;48.874;2.332;2022-07-24T03:36:09;101455.36;;;28.31;44.70
39275;BME280;24980;48.874;2.332;2022-07-24T03:38:39;101452.65;;;28.30;44.69
39275;BME280;24980;48.874;2.332;2022-07-24T03:41:09;101454.19;;;28.29;44.68
39275;BME280;24980;48.874;2.332;2022-07-24T03:43:39;101456.05;;;28.28;44.69
39275;BME280;24980;48.874;2.332;2022-07-24T03:46:10;101453.83;;;28.28;44.69
39275;BME280;24980;48.874;2.332;2022-07-24T03:48:40;101455.41;;;28.26;44.68
39275;BME280;24980;48.874;2.332;2022-07-24T03:51:10;101454.64;;;28.26;44.68
39275;BME280;24980;48.874;2.332;2022-07-24T03:53:40;101455.44;;;28.25;44.70
39275;BME280;24980;48.874;2.332;2022-07-24T03:56:10;101456.73;;;28.25;44.69
39275;BME280;24980;48.874;2.332;2022-07-24T03:58:40;101451.89;;;28.24;44.68
39275;BME280;24980;48.874;2.332;2022-07-24T04:01:11;101450.36;;;28.24;44.68
39275;BME280;24980;48.874;2.332;2022-07-24T04:03:41;101444.84;;;28.23;44.69
39275;BME280;24980;48.874;2.332;2022-07-24T04:06:11;101451.49;;;28.23;44.69
39275;BME280;24980;48.874;2.332;2022-07-24T04:08:41;101454.19;;;28.22;44.68
39275;BME280;24980;48.874;2.332;2022-07-24T04:11:11;101459.08;;;28.20;44.67
39275;BME280;24980;48.874;2.332;2022-07-24T04:13:42;101458.38;;;28.18;44.67
39275;BME280;24980;48.874;2.332;2022-07-24T04:16:12;101460.88;;;28.17;44.64
39275;BME280;24980;48.874;2.332;2022-07-24T04:18:42;101464.47;;;28.16;44.63
39275;BME280;24980;48.874;2.332;2022-07-24T04:21:12;101465.23;;;28.16;44.61
39275;BME280;24980;48.874;2.332;2022-07-24T04:23:43;101470.25;;;28.17;44.61
39275;BME280;24980;48.874;2.332;2022-07-24T04:26:13;101467.88;;;28.16;44.58
39275;BME280;24980;48.874;2.332;2022-07-24T04:28:44;101463.24;;;28.15;44.57
39275;BME280;24980;48.874;2.332;2022-07-24T04:31:14;101464.86;;;28.16;44.56
39275;BME280;24980;48.874;2.332;2022-07-24T04:33:44;101465.12;;;28.15;44.55
39275;BME280;24980;48.874;2.332;2022-07-24T04:36:14;101463.07;;;28.15;44.55
39275;BME280;24980;48.874;2.332;2022-07-24T04:38:44;101462.82;;;28.15;44.55
39275;BME280;24980;48.874;2.332;2022-07-24T04:41:14;101463.86;;;28.14;44.57
39275;BME280;24980;48.874;2.332;2022-07-24T04:43:44;101463.27;;;28.14;44.57
39275;BME280;24980;48.874;2.332;2022-07-24T04:46:14;101463.53;;;28.14;44.57
39275;BME280;24980;48.874;2.332;2022-07-24T04:48:44;101461.50;;;28.13;44.57
39275;BME280;24980;48.874;2.332;2022-07-24T04:51:14;101458.22;;;28.12;44.57
39275;BME280;24980;48.874;2.332;2022-07-24T04:53:44;101457.05;;;28.11;44.56
39275;BME280;24980;48.874;2.332;2022-07-24T04:56:14;101456.05;;;28.10;44.56
39275;BME280;24980;48.874;2.332;2022-07-24T04:58:45;101458.86;;;28.10;44.56
39275;BME280;24980;48.874;2.332;2022-07-24T05:01:15;101452.86;;;28.09;44.54
39275;BME280;24980;48.874;2.332;2022-07-24T05:03:45;101456.53;;;28.09;44.54
39275;BME280;24980;48.874;2.332;2022-07-24T05:06:15;101459.19;;;28.08;44.54
39275;BME280;24980;48.874;2.332;2022-07-24T05:08:45;101456.81;;;28.07;44.53
39275;BME280;24980;48.874;2.332;2022-07-24T05:11:16;101458.45;;;28.07;44.53
39275;BME280;24980;48.874;2.332;2022-07-24T05:13:46;101457.43;;;28.07;44.52
39275;BME280;24980;48.874;2.332;2022-07-24T05:16:16;101454.82;;;28.05;44.52
39275;BME280;24980;48.874;2.332;2022-07-24T05:18:46;101462.57;;;28.05;44.53
39275;BME280;24980;48.874;2.332;2022-07-24T05:21:19;101460.47;;;28.04;44.53
39275;BME280;24980;48.874;2.332;2022-07-24T05:23:47;101461.42;;;28.03;44.53
39275;BME280;24980;48.874;2.332;2022-07-24T05:26:17;101462.16;;;28.01;44.52
39275;BME280;24980;48.874;2.332;2022-07-24T05:28:47;101458.93;;;28.01;44.54
39275;BME280;24980;48.874;2.332;2022-07-24T05:31:17;101459.38;;;28.00;44.53
39275;BME280;24980;48.874;2.332;2022-07-24T05:33:47;101462.09;;;28.00;44.53
39275;BME280;24980;48.874;2.332;2022-07-24T05:36:17;101461.04;;;27.99;44.54
39275;BME280;24980;48.874;2.332;2022-07-24T05:38:47;101457.22;;;27.99;44.57
39275;BME280;24980;48.874;2.332;2022-07-24T05:41:17;101460.12;;;27.98;44.59
39275;BME280;24980;48.874;2.332;2022-07-24T05:43:48;101459.55;;;27.97;44.59
39275;BME280;24980;48.874;2.332;2022-07-24T05:46:18;101459.21;;;27.97;44.59
39275;BME280;24980;48.874;2.332;2022-07-24T05:48:48;101458.62;;;27.97;44.59
39275;BME280;24980;48.874;2.332;2022-07-24T05:51:19;101458.58;;;27.96;44.59
39275;BME280;24980;48.874;2.332;2022-07-24T05:53:48;101457.92;;;27.95;44.60
39275;BME280;24980;48.874;2.332;2022-07-24T05:56:18;101457.23;;;27.95;44.60
39275;BME280;24980;48.874;2.332;2022-07-24T05:58:48;101459.62;;;27.94;44.60
39275;BME280;24980;48.874;2.332;2022-07-24T06:01:18;101459.38;;;27.95;44.61
39275;BME280;24980;48.874;2.332;2022-07-24T06:03:48;101455.80;;;27.95;44.62
39275;BME280;24980;48.874;2.332;2022-07-24T06:06:18;101453.64;;;27.96;44.61
39275;BME280;24980;48.874;2.332;2022-07-24T06:08:48;101455.80;;;27.95;44.63
39275;BME280;24980;48.874;2.332;2022-07-24T06:11:18;101456.14;;;27.91;44.64
39275;BME280;24980;48.874;2.332;2022-07-24T06:13:49;101454.70;;;27.88;44.66
39275;BME280;24980;48.874;2.332;2022-07-24T06:16:19;101451.12;;;27.86;44.64
39275;BME280;24980;48.874;2.332;2022-07-24T06:18:49;101446.16;;;27.83;44.63
39275;BME280;24980;48.874;2.332;2022-07-24T06:21:19;101445.28;;;27.81;44.62
39275;BME280;24980;48.874;2.332;2022-07-24T06:23:49;101444.05;;;27.80;44.61
39275;BME280;24980;48.874;2.332;2022-07-24T06:26:19;101449.03;;;27.81;44.57
39275;BME280;24980;48.874;2.332;2022-07-24T06:28:49;101442.34;;;27.80;44.56
39275;BME280;24980;48.874;2.332;2022-07-24T06:31:19;101443.41;;;27.81;44.55
39275;BME280;24980;48.874;2.332;2022-07-24T06:33:49;101444.72;;;27.80;44.56
39275;BME280;24980;48.874;2.332;2022-07-24T06:36:20;101441.02;;;27.81;44.58
39275;BME280;24980;48.874;2.332;2022-07-24T06:38:49;101441.95;;;27.81;44.62
39275;BME280;24980;48.874;2.332;2022-07-24T06:41:20;101441.35;;;27.81;44.64
39275;BME280;24980;48.874;2.332;2022-07-24T06:43:50;101439.66;;;27.81;44.64
39275;BME280;24980;48.874;2.332;2022-07-24T06:46:20;101437.58;;;27.80;44.64
39275;BME280;24980;48.874;2.332;2022-07-24T06:48:50;101437.16;;;27.79;44.64
39275;BME280;24980;48.874;2.332;2022-07-24T06:51:20;101437.53;;;27.78;44.64
39275;BME280;24980;48.874;2.332;2022-07-24T06:53:50;101439.03;;;27.77;44.65
39275;BME280;24980;48.874;2.332;2022-07-24T06:56:20;101434.00;;;27.77;44.65
39275;BME280;24980;48.874;2.332;2022-07-24T06:58:50;101434.95;;;27.76;44.66
39275;BME280;24980;48.874;2.332;2022-07-24T07:01:21;101434.62;;;27.75;44.67
39275;BME280;24980;48.874;2.332;2022-07-24T07:03:50;101436.08;;;27.75;44.68
39275;BME280;24980;48.874;2.332;2022-07-24T07:06:21;101434.80;;;27.75;44.68
39275;BME280;24980;48.874;2.332;2022-07-24T07:08:51;101431.92;;;27.74;44.70
39275;BME280;24980;48.874;2.332;2022-07-24T07:11:21;101433.62;;;27.74;44.71
39275;BME280;24980;48.874;2.332;2022-07-24T07:13:51;101433.85;;;27.73;44.74
39275;BME280;24980;48.874;2.332;2022-07-24T07:16:21;101435.97;;;27.73;44.75
39275;BME280;24980;48.874;2.332;2022-07-24T07:18:51;101436.31;;;27.73;44.76
39275;BME280;24980;48.874;2.332;2022-07-24T07:21:21;101435.13;;;27.72;44.77
39275;BME280;24980;48.874;2.332;2022-07-24T07:23:51;101435.48;;;27.72;44.78
39275;BME280;24980;48.874;2.332;2022-07-24T07:26:21;101433.02;;;27.72;44.79
39275;BME280;24980;48.874;2.332;2022-07-24T07:28:52;101434.27;;;27.70;44.80
39275;BME280;24980;48.874;2.332;2022-07-24T07:31:22;101434.11;;;27.70;44.81
39275;BME280;24980;48.874;2.332;2022-07-24T07:33:52;101432.84;;;27.69;44.81
39275;BME280;24980;48.874;2.332;2022-07-24T07:36:22;101434.81;;;27.69;44.83
39275;BME280;24980;48.874;2.332;2022-07-24T07:38:53;101428.17;;;27.68;44.84
39275;BME280;24980;48.874;2.332;2022-07-24T07:41:23;101426.47;;;27.68;44.84
39275;BME280;24980;48.874;2.332;2022-07-24T07:43:53;101426.64;;;27.68;44.87
39275;BME280;24980;48.874;2.332;2022-07-24T07:46:23;101427.02;;;27.68;44.87
39275;BME280;24980;48.874;2.332;2022-07-24T07:48:53;101429.50;;;27.67;44.87
39275;BME280;24980;48.874;2.332;2022-07-24T07:51:23;101428.73;;;27.68;44.89
39275;BME280;24980;48.874;2.332;2022-07-24T07:53:53;101427.80;;;27.67;44.90
39275;BME280;24980;48.874;2.332;2022-07-24T07:56:23;101424.57;;;27.67;44.92
39275;BME280;24980;48.874;2.332;2022-07-24T07:58:53;101420.48;;;27.67;44.93
39275;BME280;24980;48.874;2.332;2022-07-24T08:01:23;101418.45;;;27.66;44.93
39275;BME280;24980;48.874;2.332;2022-07-24T08:03:53;101417.10;;;27.65;44.94
39275;BME280;24980;48.874;2.332;2022-07-24T08:06:24;101415.48;;;27.66;44.95
39275;BME280;24980;48.874;2.332;2022-07-24T08:08:54;101412.08;;;27.65;44.96
39275;BME280;24980;48.874;2.332;2022-07-24T08:11:24;101412.58;;;27.66;44.98
39275;BME280;24980;48.874;2.332;2022-07-24T08:13:54;101411.47;;;27.66;44.98
39275;BME280;24980;48.874;2.332;2022-07-24T08:16:25;101409.59;;;27.66;44.99
39275;BME280;24980;48.874;2.332;2022-07-24T08:18:54;101411.02;;;27.67;45.00
39275;BME280;24980;48.874;2.332;2022-07-24T08:21:25;101404.90;;;27.67;45.03
39275;BME280;24980;48.874;2.332;2022-07-24T08:23:55;101403.27;;;27.67;45.07
39275;BME280;24980;48.874;2.332;2022-07-24T08:26:25;101403.02;;;27.67;45.11
39275;BME280;24980;48.874;2.332;2022-07-24T08:28:57;101404.12;;;27.67;45.16
39275;BME280;24980;48.874;2.332;2022-07-24T08:31:26;101406.72;;;27.68;45.18
39275;BME280;24980;48.874;2.332;2022-07-24T08:33:56;101405.34;;;27.69;45.20
39275;BME280;24980;48.874;2.332;2022-07-24T08:36:26;101402.77;;;27.69;45.20
39275;BME280;24980;48.874;2.332;2022-07-24T08:38:56;101401.31;;;27.70;45.21
39275;BME280;24980;48.874;2.332;2022-07-24T08:41:30;101400.55;;;27.70;45.21
39275;BME280;24980;48.874;2.332;2022-07-24T08:43:57;101396.38;;;27.70;45.20
39275;BME280;24980;48.874;2.332;2022-07-24T08:46:27;101396.20;;;27.70;45.21
39275;BME280;24980;48.874;2.332;2022-07-24T08:48:58;101388.70;;;27.70;45.22
39275;BME280;24980;48.874;2.332;2022-07-24T08:51:32;101388.66;;;27.71;45.22
39275;BME280;24980;48.874;2.332;2022-07-24T08:53:58;101387.00;;;27.73;45.21
39275;BME280;24980;48.874;2.332;2022-07-24T08:56:28;101385.20;;;27.76;45.20
39275;BME280;24980;48.874;2.332;2022-07-24T08:58:59;101382.48;;;27.76;45.17
39275;BME280;24980;48.874;2.332;2022-07-24T09:01:28;101373.70;;;27.76;45.16
39275;BME280;24980;48.874;2.332;2022-07-24T09:03:58;101372.62;;;27.78;45.16
39275;BME280;24980;48.874;2.332;2022-07-24T09:06:32;101375.83;;;27.79;45.13
39275;BME280;24980;48.874;2.332;2022-07-24T09:09:03;101368.91;;;27.80;45.09
39275;BME280;24980;48.874;2.332;2022-07-24T09:11:29;101366.12;;;27.79;45.06
39275;BME280;24980;48.874;2.332;2022-07-24T09:14:01;101362.46;;;27.82;45.00
39275;BME280;24980;48.874;2.332;2022-07-24T09:16:33;101361.08;;;27.83;44.93
39275;BME280;24980;48.874;2.332;2022-07-24T09:19:06;101359.88;;;27.83;44.87
39275;BME280;24980;48.874;2.332;2022-07-24T09:21:33;101355.44;;;27.84;44.82
39275;BME280;24980;48.874;2.332;2022-07-24T09:24:16;101354.51;;;27.86;44.77
39275;BME280;24980;48.874;2.332;2022-07-24T09:26:43;101354.31;;;27.89;44.71
39275;BME280;24980;48.874;2.332;2022-07-24T09:29:11;101351.33;;;27.92;44.62
39275;BME280;24980;48.874;2.332;2022-07-24T09:31:56;101346.30;;;27.93;44.58
39275;BME280;24980;48.874;2.332;2022-07-24T09:34:08;101343.27;;;27.93;44.56
39275;BME280;24980;48.874;2.332;2022-07-24T09:36:36;101339.66;;;27.95;44.53
39275;BME280;24980;48.874;2.332;2022-07-24T09:39:07;101335.45;;;27.96;44.51
39275;BME280;24980;48.874;2.332;2022-07-24T09:41:49;101332.13;;;27.96;44.50
39275;BME280;24980;48.874;2.332;2022-07-24T09:44:12;101333.64;;;28.00;44.49
39275;BME280;24980;48.874;2.332;2022-07-24T09:46:38;101329.15;;;28.03;44.45
39275;BME280;24980;48.874;2.332;2022-07-24T09:49:19;101328.48;;;28.07;44.44
39275;BME280;24980;48.874;2.332;2022-07-24T09:51:38;101324.95;;;28.11;44.42
39275;BME280;24980;48.874;2.332;2022-07-24T09:54:09;101324.67;;;28.14;44.40
39275;BME280;24980;48.874;2.332;2022-07-24T09:56:42;101321.23;;;28.18;44.37
39275;BME280;24980;48.874;2.332;2022-07-24T09:59:10;101319.27;;;28.21;44.33
39275;BME280;24980;48.874;2.332;2022-07-24T10:01:43;101321.30;;;28.24;44.31
39275;BME280;24980;48.874;2.332;2022-07-24T10:04:12;101309.32;;;28.28;44.28
39275;BME280;24980;48.874;2.332;2022-07-24T10:06:44;101318.47;;;28.29;44.26
39275;BME280;24980;48.874;2.332;2022-07-24T10:09:12;101310.29;;;28.29;44.25
39275;BME280;24980;48.874;2.332;2022-07-24T10:11:44;101307.52;;;28.31;44.24
39275;BME280;24980;48.874;2.332;2022-07-24T10:14:12;101311.49;;;28.35;44.18
39275;BME280;24980;48.874;2.332;2022-07-24T10:16:46;101306.67;;;28.41;44.10
39275;BME280;24980;48.874;2.332;2022-07-24T10:19:15;101306.48;;;28.44;44.04
39275;BME280;24980;48.874;2.332;2022-07-24T10:21:53;101304.10;;;28.44;44.01
39275;BME280;24980;48.874;2.332;2022-07-24T10:24:34;101307.48;;;28.50;43.94
39275;BME280;24980;48.874;2.332;2022-07-24T10:26:47;101304.92;;;28.55;43.83
39275;BME280;24980;48.874;2.332;2022-07-24T10:29:19;101301.65;;;28.58;43.74
39275;BME280;24980;48.874;2.332;2022-07-24T10:31:47;101299.27;;;28.64;43.66
39275;BME280;24980;48.874;2.332;2022-07-24T10:34:36;101290.42;;;28.68;43.59
39275;BME280;24980;48.874;2.332;2022-07-24T10:37:01;101291.24;;;28.74;43.53
39275;BME280;24980;48.874;2.332;2022-07-24T10:39:26;101284.28;;;28.78;43.47
39275;BME280;24980;48.874;2.332;2022-07-24T10:41:59;101286.98;;;28.79;43.47
39275;BME280;24980;48.874;2.332;2022-07-24T10:44:19;101284.11;;;28.76;43.53
39275;BME280;24980;48.874;2.332;2022-07-24T10:46:59;101284.25;;;28.74;43.61
39275;BME280;24980;48.874;2.332;2022-07-24T10:49:45;101273.14;;;28.72;43.67
39275;BME280;24980;48.874;2.332;2022-07-24T10:51:59;101273.50;;;28.71;43.73
39275;BME280;24980;48.874;2.332;2022-07-24T10:54:23;101270.09;;;28.71;43.80
39275;BME280;24980;48.874;2.332;2022-07-24T10:56:52;101274.95;;;28.72;43.84
39275;BME280;24980;48.874;2.332;2022-07-24T10:59:38;101269.71;;;28.73;43.89
39275;BME280;24980;48.874;2.332;2022-07-24T11:01:52;101267.52;;;28.74;43.92
39275;BME280;24980;48.874;2.332;2022-07-24T11:04:27;101265.17;;;28.76;43.94
39275;BME280;24980;48.874;2.332;2022-07-24T11:07:08;101257.21;;;28.77;43.95
39275;BME280;24980;48.874;2.332;2022-07-24T11:09:25;101248.19;;;28.78;43.96
39275;BME280;24980;48.874;2.332;2022-07-24T11:12:04;101245.50;;;28.80;43.96
39275;BME280;24980;48.874;2.332;2022-07-24T11:16:56;101239.76;;;28.83;43.98
39275;BME280;24980;48.874;2.332;2022-07-24T11:19:28;101238.39;;;28.85;43.98
39275;BME280;24980;48.874;2.332;2022-07-24T11:22:05;101235.83;;;28.87;43.97
39275;BME280;24980;48.874;2.332;2022-07-24T11:24:28;101240.23;;;28.88;43.96
39275;BME280;24980;48.874;2.332;2022-07-24T11:27:05;101236.20;;;28.89;43.95
39275;BME280;24980;48.874;2.332;2022-07-24T11:29:36;101231.78;;;28.90;43.96
39275;BME280;24980;48.874;2.332;2022-07-24T11:32:04;101232.36;;;28.91;43.96
39275;BME280;24980;48.874;2.332;2022-07-24T11:34:31;101230.73;;;28.93;43.95
39275;BME280;24980;48.874;2.332;2022-07-24T11:37:06;101223.17;;;28.95;43.92
39275;BME280;24980;48.874;2.332;2022-07-24T11:39:42;101225.75;;;28.96;43.90
39275;BME280;24980;48.874;2.332;2022-07-24T11:42:04;101221.45;;;28.97;43.89
39275;BME280;24980;48.874;2.332;2022-07-24T11:44:36;101214.03;;;28.99;43.86
39275;BME280;24980;48.874;2.332;2022-07-24T11:47:08;101211.56;;;29.02;43.84
39275;BME280;24980;48.874;2.332;2022-07-24T11:49:47;101203.09;;;29.05;43.81
39275;BME280;24980;48.874;2.332;2022-07-24T11:52:06;101204.88;;;29.07;43.77
39275;BME280;24980;48.874;2.332;2022-07-24T11:54:39;101203.55;;;29.09;43.74
39275;BME280;24980;48.874;2.332;2022-07-24T11:57:27;101198.87;;;29.10;43.71
39275;BME280;24980;48.874;2.332;2022-07-24T11:59:37;101195.36;;;29.12;43.68
39275;BME280;24980;48.874;2.332;2022-07-24T12:02:11;101189.27;;;29.14;43.63
39275;BME280;24980;48.874;2.332;2022-07-24T12:04:40;101183.36;;;29.16;43.58
39275;BME280;24980;48.874;2.332;2022-07-24T12:07:14;101178.13;;;29.17;43.54
39275;BME280;24980;48.874;2.332;2022-07-24T12:09:48;101184.23;;;29.18;43.52
39275;BME280;24980;48.874;2.332;2022-07-24T12:12:33;101174.76;;;29.20;43.48
39275;BME280;24980;48.874;2.332;2022-07-24T12:14:40;101170.73;;;29.22;43.45
39275;BME280;24980;48.874;2.332;2022-07-24T12:17:10;101170.70;;;29.25;43.42
39275;BME280;24980;48.874;2.332;2022-07-24T12:19:54;101166.77;;;29.27;43.37
39275;BME280;24980;48.874;2.332;2022-07-24T12:22:11;101165.06;;;29.28;43.33
39275;BME280;24980;48.874;2.332;2022-07-24T12:24:45;101159.82;;;29.32;43.29
39275;BME280;24980;48.874;2.332;2022-07-24T12:27:13;101154.80;;;29.34;43.25
39275;BME280;24980;48.874;2.332;2022-07-24T12:29:45;101148.45;;;29.37;43.22
39275;BME280;24980;48.874;2.332;2022-07-24T12:32:18;101146.91;;;29.39;43.19
39275;BME280;24980;48.874;2.332;2022-07-24T12:34:47;101140.20;;;29.40;43.18
39275;BME280;24980;48.874;2.332;2022-07-24T12:37:19;101141.73;;;29.42;43.15
39275;BME280;24980;48.874;2.332;2022-07-24T12:39:49;101132.05;;;29.45;43.13
39275;BME280;24980;48.874;2.332;2022-07-24T12:42:17;101132.70;;;29.46;43.09
39275;BME280;24980;48.874;2.332;2022-07-24T12:44:45;101128.41;;;29.47;43.08
39275;BME280;24980;48.874;2.332;2022-07-24T12:47:18;101128.96;;;29.50;43.06
39275;BME280;24980;48.874;2.332;2022-07-24T12:49:45;101126.04;;;29.52;43.01
39275;BME280;24980;48.874;2.332;2022-07-24T12:52:23;101121.67;;;29.54;42.99
39275;BME280;24980;48.874;2.332;2022-07-24T12:54:48;101114.62;;;29.56;42.96
39275;BME280;24980;48.874;2.332;2022-07-24T12:57:20;101111.95;;;29.57;42.93
39275;BME280;24980;48.874;2.332;2022-07-24T12:59:49;101111.00;;;29.59;42.91
39275;BME280;24980;48.874;2.332;2022-07-24T13:02:21;101104.99;;;29.60;42.89
39275;BME280;24980;48.874;2.332;2022-07-24T13:04:50;101100.11;;;29.62;42.87
39275;BME280;24980;48.874;2.332;2022-07-24T13:07:20;101093.77;;;29.62;42.85